Main page
METAR-TAF:

METAR-TAF

Airports :

Dasht-e Naz Airport

Sari, Iran

latitude: 36-38-09N, longitude: 53-11-37E, elevation: 11 m

Current weather observation

The report was made 17 minutes ago, at 14:00 UTC
Wind 6 kt from the North/Northeast
Temperature 28°C
Humidity 70%
Pressure 1004 hPa
Visibility 10 km or more
Few clouds at a height of 3000 ft
Scattered clouds at a height of 4000 ft
Overcast at a height of 9000 ft

METAR: OINZ 181400Z 02006KT 9999 FEW030 SCT040 OVC090 28/22 Q1004

Time: 18:47 (14:17 UTC)


TAF: missing

Weather observations and forecasts of more than 4000 airports (METAR and TAF reports).

The available stations are represented by yellow and red dots on the map.

Hover mouse over dot to see the name of the station.

Then click to see weather observations and forecasts.

To change the map : click on the green buttons with a black cross to zoom in, on the green button with a dash to zoom out, or on the green arrows for adjacent maps.


METAR-TAF: